Time;durP1;ratioP1;P1;durP2;ratioP2;P2;SDS_P1;SDS_P2;PMS_P1;PMS_P2;Temp;Humidity;BMP_temperature;BMP_pressure;BME280_temperature;BME280_humidity;BME280_pressure;Samples;Min_cycle;Max_cycle;Signal;HPM_P1;HPM_P2
2023/06/01 00:00:50;;;;;;;8.15;4.88;;;;;;;15.20;73.54;99817.81;5111993;28;20374;-78
2023/06/01 00:03:15;;;;;;;9.15;5.63;;;;;;;15.08;73.49;99792.34;5111974;28;20485;-78
2023/06/01 00:05:41;;;;;;;7.28;5.40;;;;;;;15.13;73.78;99817.38;5111659;28;20099;-78
2023/06/01 00:08:06;;;;;;;9.95;5.43;;;;;;;15.01;74.02;99791.06;5112066;28;20031;-78
2023/06/01 00:10:32;;;;;;;7.78;4.82;;;;;;;14.98;74.29;99792.91;5111605;28;20031;-78
2023/06/01 00:12:58;;;;;;;8.25;5.00;;;;;;;15.06;74.30;99808.19;5111982;28;20028;-78
2023/06/01 00:15:23;;;;;;;7.32;5.40;;;;;;;14.98;74.25;99797.31;5111714;28;20511;-78
2023/06/01 00:17:51;;;;;;;8.07;5.47;;;;;;;14.70;74.35;99754.44;5111868;28;20028;-78
2023/06/01 00:20:17;;;;;;;7.30;5.18;;;;;;;14.66;74.62;99759.97;5111919;28;20027;-78
2023/06/01 00:22:42;;;;;;;8.00;5.30;;;;;;;14.65;75.08;99761.75;5111720;28;20023;-78
2023/06/01 00:25:08;;;;;;;7.53;5.25;;;;;;;14.93;74.94;99800.22;5111996;28;20036;-78
2023/06/01 00:27:33;;;;;;;8.27;5.40;;;;;;;14.89;75.35;99793.50;5111509;28;20031;-78
2023/06/01 00:29:59;;;;;;;8.13;5.05;;;;;;;14.75;75.46;99764.69;5111710;28;20104;-78
2023/06/01 00:32:24;;;;;;;6.10;4.60;;;;;;;14.88;75.31;99801.47;5111924;28;20098;-78
2023/06/01 00:34:49;;;;;;;7.50;6.03;;;;;;;14.68;75.93;99768.59;5111650;28;20490;-78
2023/06/01 00:37:15;;;;;;;7.63;5.22;;;;;;;14.70;75.75;99777.19;5111826;28;20024;-78
2023/06/01 00:39:40;;;;;;;13.07;6.57;;;;;;;14.78;76.09;99789.84;5111524;28;20028;-78
2023/06/01 00:42:06;;;;;;;9.38;5.53;;;;;;;14.63;76.57;99770.69;5114561;28;20077;-78
2023/06/01 00:44:31;;;;;;;9.32;6.50;;;;;;;14.67;76.89;99788.75;5115222;28;20031;-78
2023/06/01 00:46:59;;;;;;;6.88;5.22;;;;;;;14.69;76.94;99794.72;5115548;28;20023;-78
2023/06/01 00:49:24;;;;;;;9.35;6.32;;;;;;;14.52;76.68;99765.25;5115390;28;20041;-78
2023/06/01 00:51:50;;;;;;;9.10;5.65;;;;;;;14.62;77.33;99787.31;5115023;28;20019;-78
2023/06/01 00:54:15;;;;;;;6.78;5.63;;;;;;;14.63;77.20;99796.88;5114908;28;20478;-78
2023/06/01 00:56:41;;;;;;;7.50;5.75;;;;;;;14.59;77.40;99784.91;5114968;28;20077;-78
2023/06/01 00:59:06;;;;;;;10.27;6.45;;;;;;;14.42;77.51;99757.06;5114857;28;20059;-78
2023/06/01 01:01:33;;;;;;;8.73;6.00;;;;;;;14.39;77.93;99768.56;5114920;28;20046;-78
2023/06/01 01:04:00;;;;;;;10.18;6.07;;;;;;;14.54;77.93;99792.19;5115069;28;20067;-78
2023/06/01 01:06:34;;;;;;;8.50;5.95;;;;;;;14.48;77.77;99794.25;5114891;28;20024;-78
2023/06/01 01:09:13;;;;;;;10.82;5.82;;;;;;;14.46;77.51;99788.22;5114928;28;20032;-78
2023/06/01 01:11:43;;;;;;;8.82;6.30;;;;;;;14.15;77.99;99744.66;5114832;28;20088;-78
2023/06/01 01:14:19;;;;;;;9.93;6.35;;;;;;;14.25;78.11;99773.81;5114651;28;20083;-78
2023/06/01 01:16:52;;;;;;;7.97;5.82;;;;;;;14.19;78.96;99780.22;5114549;28;20019;-78
2023/06/01 01:19:32;;;;;;;10.68;6.13;;;;;;;14.27;79.16;99794.66;5114620;28;20024;-78
2023/06/01 01:22:15;;;;;;;9.45;6.18;;;;;;;14.27;79.05;99794.66;5114384;28;20024;-78
2023/06/01 01:25:12;;;;;;;8.73;6.78;;;;;;;14.24;79.03;99798.28;5114567;28;20026;-78
2023/06/01 01:27:52;;;;;;;9.45;6.30;;;;;;;14.19;79.97;99798.56;5114255;28;20039;-78
2023/06/01 01:30:26;;;;;;;13.65;6.07;;;;;;;14.08;79.98;99784.44;5114284;28;20379;-77
2023/06/01 01:32:53;;;;;;;10.50;6.40;;;;;;;13.95;80.25;99779.91;5114403;28;20027;-78
2023/06/01 01:35:20;;;;;;;10.07;6.00;;;;;;;13.99;80.16;99780.59;5114434;28;20394;-78
2023/06/01 01:37:53;;;;;;;7.30;5.53;;;;;;;13.96;79.79;99765.03;5114188;28;20518;-78
2023/06/01 01:40:18;;;;;;;13.48;6.63;;;;;;;14.01;79.84;99778.72;5114251;28;20077;-78
2023/06/01 01:42:44;;;;;;;11.20;7.03;;;;;;;13.96;80.20;99778.16;5113895;28;20032;-78
2023/06/01 01:45:10;;;;;;;11.02;6.88;;;;;;;14.00;80.47;99776.19;5114378;28;20031;-78
2023/06/01 01:47:55;;;;;;;8.35;6.20;;;;;;;13.92;80.47;99772.25;5113896;28;20094;-78
2023/06/01 01:50:26;;;;;;;9.05;6.70;;;;;;;13.88;80.74;99765.50;5114110;28;20089;-78
2023/06/01 01:52:53;;;;;;;11.38;7.05;;;;;;;13.73;80.71;99742.81;5112620;28;20020;-78
2023/06/01 01:55:23;;;;;;;8.98;6.28;;;;;;;13.82;80.75;99759.75;5113966;28;20034;-78
2023/06/01 01:57:51;;;;;;;10.45;6.65;;;;;;;13.75;81.17;99755.84;5113800;28;20023;-78
2023/06/01 02:00:17;;;;;;;10.32;6.47;;;;;;;13.63;80.62;99742.50;5113844;28;20057;-78
2023/06/01 02:02:45;;;;;;;9.65;6.22;;;;;;;13.79;81.09;99763.41;5060839;28;20066;-78
2023/06/01 02:05:11;;;;;;;12.30;7.03;;;;;;;13.64;81.13;99752.03;5113740;28;20081;-78
2023/06/01 02:07:36;;;;;;;9.35;7.03;;;;;;;13.69;81.57;99762.25;5113412;28;20459;-78
2023/06/01 02:10:01;;;;;;;9.32;6.93;;;;;;;13.45;81.78;99715.63;5113554;28;20027;-78
2023/06/01 02:12:27;;;;;;;11.23;6.28;;;;;;;13.65;81.42;99748.50;5113709;28;20099;-78
2023/06/01 02:14:52;;;;;;;8.00;6.65;;;;;;;13.64;81.30;99752.03;5113223;28;20051;-78
2023/06/01 02:17:17;;;;;;;10.38;5.97;;;;;;;13.69;81.40;99759.63;5113539;28;20023;-78
2023/06/01 02:19:43;;;;;;;11.90;6.80;;;;;;;13.70;81.32;99762.19;5113329;28;20039;-78
2023/06/01 02:22:09;;;;;;;9.65;6.70;;;;;;;13.55;81.16;99743.88;5113452;28;20028;-78
2023/06/01 02:24:35;;;;;;;13.43;7.00;;;;;;;13.47;80.84;99728.63;5113432;28;20023;-78
2023/06/01 02:27:00;;;;;;;10.40;6.25;;;;;;;13.62;81.37;99758.31;5113243;28;20053;-78
2023/06/01 02:29:26;;;;;;;11.55;7.05;;;;;;;13.58;81.33;99751.56;5113490;28;20433;-78
2023/06/01 02:31:52;;;;;;;11.00;7.10;;;;;;;13.40;82.05;99728.16;5113126;28;20027;-78
2023/06/01 02:34:18;;;;;;;10.63;6.43;;;;;;;13.38;82.04;99729.97;5113189;28;20079;-78
2023/06/01 02:36:43;;;;;;;11.20;7.07;;;;;;;13.44;82.08;99742.75;5112856;28;20024;-78
2023/06/01 02:39:09;;;;;;;10.63;6.82;;;;;;;13.36;82.06;99726.63;5112954;28;20371;-78
2023/06/01 02:41:34;;;;;;;9.40;6.93;;;;;;;13.35;81.85;99717.06;5113203;28;20106;-78
2023/06/01 02:44:00;;;;;;;9.90;6.88;;;;;;;13.41;82.10;99732.44;5112959;28;20413;-78
2023/06/01 02:46:25;;;;;;;12.02;6.53;;;;;;;13.29;82.16;99714.81;5112906;28;20041;-78
2023/06/01 02:48:51;;;;;;;10.68;6.65;;;;;;;13.40;82.28;99732.50;5112743;28;20110;-78
2023/06/01 02:51:18;;;;;;;10.63;6.68;;;;;;;13.42;82.38;99738.50;5112696;28;20123;-78
2023/06/01 02:53:44;;;;;;;13.65;7.55;;;;;;;13.46;82.73;99740.84;5112438;28;20035;-78
2023/06/01 02:56:10;;;;;;;11.98;6.38;;;;;;;13.35;82.79;99721.47;5112766;28;20034;-78
2023/06/01 02:58:36;;;;;;;11.70;7.07;;;;;;;13.42;82.56;99731.50;5112819;28;20032;-78
2023/06/01 03:01:01;;;;;;;14.73;6.40;;;;;;;13.40;82.41;99725.53;5112431;28;20024;-78
2023/06/01 03:03:27;;;;;;;8.98;6.32;;;;;;;13.40;82.34;99722.91;5112359;28;20031;-78
2023/06/01 03:05:53;;;;;;;8.90;6.20;;;;;;;13.55;82.41;99743.88;5112418;28;20335;-78
2023/06/01 03:08:19;;;;;;;9.25;6.97;;;;;;;13.40;82.58;99715.06;5112794;28;20027;-78
2023/06/01 03:10:45;;;;;;;12.65;7.28;;;;;;;13.50;82.40;99723.22;5112543;28;20034;-78
2023/06/01 03:13:11;;;;;;;11.23;6.50;;;;;;;13.60;82.34;99745.28;5112667;28;20031;-78
2023/06/01 03:15:39;;;;;;;11.00;6.70;;;;;;;13.43;82.33;99708.78;5112521;28;20055;-78
2023/06/01 03:18:08;;;;;;;10.15;6.78;;;;;;;13.45;82.14;99712.19;5112477;28;20091;-78
2023/06/01 03:20:34;;;;;;;10.05;6.55;;;;;;;13.55;82.28;99729.03;5112295;28;20036;-78
2023/06/01 03:23:00;;;;;;;11.73;7.22;;;;;;;13.57;82.42;99735.03;5112386;28;20061;-78
2023/06/01 03:25:26;;;;;;;9.77;6.43;;;;;;;13.56;82.30;99730.69;5112625;28;20032;-78
2023/06/01 03:27:51;;;;;;;9.70;6.78;;;;;;;13.51;82.60;99717.03;5112287;28;20070;-78
2023/06/01 03:30:16;;;;;;;11.77;7.10;;;;;;;13.68;82.62;99742.25;5112663;28;20023;-78
2023/06/01 03:32:43;;;;;;;13.65;6.78;;;;;;;13.60;82.61;99726.13;5112103;28;20024;-78
2023/06/01 03:35:11;;;;;;;11.32;6.75;;;;;;;13.60;82.70;99716.50;5112275;28;20031;-78
2023/06/01 03:37:37;;;;;;;10.15;6.78;;;;;;;13.69;82.46;99722.97;5112213;28;20356;-78
2023/06/01 03:40:10;;;;;;;9.02;7.10;;;;;;;13.87;82.38;99744.66;5112021;28;20483;-78
2023/06/01 03:42:42;;;;;;;10.40;6.95;;;;;;;13.90;82.53;99745.28;5112452;28;20023;-78
2023/06/01 03:45:08;;;;;;;12.35;6.25;;;;;;;13.78;82.33;99717.22;5112296;28;20031;-78
2023/06/01 03:47:34;;;;;;;9.57;6.65;;;;;;;13.86;82.17;99719.38;5112138;28;20028;-78
2023/06/01 03:50:01;;;;;;;9.80;7.18;;;;;;;14.02;81.99;99729.78;5112178;28;20035;-78
2023/06/01 03:52:27;;;;;;;15.18;7.22;;;;;;;14.03;82.17;99732.34;5092960;28;20035;-78
2023/06/01 03:54:52;;;;;;;9.50;6.90;;;;;;;13.95;82.14;99711.84;5093666;28;20027;-78
2023/06/01 03:57:18;;;;;;;11.43;6.93;;;;;;;13.97;82.24;99701.25;5112030;28;20016;-78
2023/06/01 03:59:43;;;;;;;11.88;7.70;;;;;;;14.05;81.62;99695.56;5111973;28;20036;-78
2023/06/01 04:02:09;;;;;;;12.20;7.57;;;;;;;14.21;81.90;99704.19;5111982;28;20019;-78
2023/06/01 04:04:35;;;;;;;14.98;7.32;;;;;;;14.35;82.17;99722.53;5111976;28;20542;-78
2023/06/01 04:07:02;;;;;;;12.32;7.05;;;;;;;14.23;81.85;99676.09;5112013;28;20099;-78
2023/06/01 04:09:28;;;;;;;13.35;7.28;;;;;;;14.58;81.44;99715.03;5112037;28;20484;-78
2023/06/01 04:11:54;;;;;;;11.27;6.75;;;;;;;14.78;81.45;99708.56;5111894;28;20425;-78
2023/06/01 04:14:20;;;;;;;9.80;6.85;;;;;;;15.22;80.20;99719.69;5111971;28;20425;-78
2023/06/01 04:16:46;;;;;;;13.35;7.20;;;;;;;15.70;77.37;99711.34;5114077;28;20031;-78
2023/06/01 04:19:11;;;;;;;14.02;7.43;;;;;;;16.08;76.27;99706.13;5115722;28;20027;-78
2023/06/01 04:21:36;;;;;;;10.07;6.88;;;;;;;16.26;73.90;99687.41;5115760;28;20572;-78
2023/06/01 04:24:02;;;;;;;11.43;7.35;;;;;;;16.31;73.31;99686.16;5115319;28;20031;-78
2023/06/01 04:26:27;;;;;;;8.70;6.43;;;;;;;16.40;73.61;99706.53;5115705;28;20024;-78
2023/06/01 04:28:56;;;;;;;8.57;6.60;;;;;;;16.36;73.28;99706.88;5115513;28;20043;-78
2023/06/01 04:31:22;;;;;;;11.80;6.93;;;;;;;16.27;73.54;99687.31;5115971;28;20452;-79
2023/06/01 04:33:53;;;;;;;9.70;6.95;;;;;;;16.37;73.29;99671.75;5115346;28;20030;-78
2023/06/01 04:36:21;;;;;;;14.02;6.60;;;;;;;16.83;72.23;99686.91;5115702;28;20027;-79
2023/06/01 04:38:54;;;;;;;10.00;5.97;;;;;;;17.86;69.62;99695.97;5115008;28;20019;-79
2023/06/01 04:41:21;;;;;;;8.48;6.82;;;;;;;19.16;65.32;99694.50;5115373;28;20020;-79
2023/06/01 04:43:51;;;;;;;7.65;5.90;;;;;;;19.87;63.30;99664.88;5115044;28;20038;-79
2023/06/01 04:46:18;;;;;;;12.73;6.22;;;;;;;20.31;61.57;99676.09;5115556;28;20024;-79
2023/06/01 04:48:44;;;;;;;9.85;6.28;;;;;;;20.36;61.65;99701.19;5115202;28;20475;-79
2023/06/01 04:51:10;;;;;;;8.02;5.95;;;;;;;20.23;60.67;99690.00;5115447;28;20059;-79
2023/06/01 04:53:35;;;;;;;11.90;7.28;;;;;;;20.10;60.74;99666.41;5115376;28;20047;-79
2023/06/01 04:56:01;;;;;;;7.90;5.95;;;;;;;20.44;60.12;99687.31;5114906;28;20024;-79
2023/06/01 04:58:26;;;;;;;7.55;5.20;;;;;;;20.76;58.86;99684.50;5114931;28;20527;-79
2023/06/01 05:00:52;;;;;;;9.93;6.10;;;;;;;21.51;57.04;99692.81;5115261;28;20475;-79
2023/06/01 05:03:17;;;;;;;6.75;5.72;;;;;;;22.68;54.87;99678.28;5115086;28;20133;-79
2023/06/01 05:05:43;;;;;;;7.63;5.95;;;;;;;23.74;52.71;99689.13;5115064;28;20023;-79
2023/06/01 05:08:10;;;;;;;10.63;6.45;;;;;;;24.23;51.44;99684.09;5115084;28;20162;-79
2023/06/01 05:10:35;;;;;;;7.35;5.55;;;;;;;23.85;51.77;99697.69;5114782;28;20509;-79
2023/06/01 05:13:00;;;;;;;10.73;6.18;;;;;;;23.33;52.74;99688.75;5114515;28;20019;-79
2023/06/01 05:15:27;;;;;;;8.95;5.70;;;;;;;23.12;53.18;99695.19;5114966;28;20146;-80
2023/06/01 05:17:53;;;;;;;9.20;5.85;;;;;;;23.08;53.12;99680.53;5114662;28;20345;-80
2023/06/01 05:20:18;;;;;;;13.43;5.70;;;;;;;23.39;52.89;99689.00;5114666;28;20668;-79
2023/06/01 05:22:44;;;;;;;7.35;5.45;;;;;;;24.07;51.38;99687.53;5114643;28;20023;-80
2023/06/01 05:25:09;;;;;;;12.20;5.72;;;;;;;25.08;49.85;99672.50;5114647;28;20024;-80
2023/06/01 05:27:35;;;;;;;10.52;5.55;;;;;;;26.00;47.95;99638.47;5114137;28;20019;-80
2023/06/01 05:30:00;;;;;;;8.77;5.35;;;;;;;26.35;46.84;99657.72;5114413;28;20031;-80
2023/06/01 05:32:26;;;;;;;8.00;5.28;;;;;;;25.98;47.36;99658.31;5114778;28;20131;-80
2023/06/01 05:34:51;;;;;;;6.90;5.00;;;;;;;25.66;48.11;99676.00;5114245;28;20031;-80
2023/06/01 05:37:16;;;;;;;7.95;5.22;;;;;;;25.36;48.14;99658.84;5114373;28;20073;-80
2023/06/01 05:39:42;;;;;;;8.00;5.10;;;;;;;25.52;48.71;99666.84;5114272;28;20024;-80
2023/06/01 05:42:07;;;;;;;9.75;5.50;;;;;;;25.79;47.93;99655.03;5113975;28;20048;-80
2023/06/01 05:44:32;;;;;;;6.82;5.10;;;;;;;26.26;47.36;99664.91;5114124;28;20061;-80
2023/06/01 05:46:58;;;;;;;8.95;4.97;;;;;;;26.94;46.14;99659.94;5114089;28;20092;-80
2023/06/01 05:49:23;;;;;;;6.70;5.38;;;;;;;27.79;45.03;99660.66;5095931;28;20424;-80
2023/06/01 05:51:49;;;;;;;8.30;4.75;;;;;;;27.84;45.11;99649.38;5113905;28;20074;-80
2023/06/01 05:54:14;;;;;;;7.72;5.13;;;;;;;27.66;44.74;99659.59;5114459;28;20076;-80
2023/06/01 05:56:44;;;;;;;7.65;5.07;;;;;;;27.57;45.38;99643.59;5113814;28;20464;-80
2023/06/01 05:59:09;;;;;;;7.32;4.53;;;;;;;27.69;45.04;99654.72;5113864;28;20084;-80
2023/06/01 06:01:36;;;;;;;5.72;5.15;;;;;;;28.16;44.40;99632.16;5114058;28;20043;-78
2023/06/01 06:04:01;;;;;;;5.50;5.00;;;;;;;29.21;42.58;99639.78;5113675;28;20392;-78
2023/06/01 06:06:27;;;;;;;5.78;4.85;;;;;;;30.65;40.72;99636.63;5113826;28;20026;-78
2023/06/01 06:08:52;;;;;;;7.28;5.20;;;;;;;31.52;39.47;99639.28;5113655;28;20524;-78
2023/06/01 06:11:18;;;;;;;4.72;4.25;;;;;;;32.04;39.64;99656.44;5113678;28;20020;-78
2023/06/01 06:13:43;;;;;;;7.05;4.35;;;;;;;32.10;38.78;99626.97;5113285;28;20399;-78
2023/06/01 06:16:08;;;;;;;4.93;4.22;;;;;;;32.61;38.32;99643.19;5113596;28;20032;-78
2023/06/01 06:18:34;;;;;;;6.63;4.57;;;;;;;32.88;37.59;99640.38;5113577;28;20023;-78
2023/06/01 06:21:00;;;;;;;6.53;4.50;;;;;;;32.97;37.66;99660.66;5113654;28;20030;-78
2023/06/01 06:23:27;;;;;;;5.28;4.07;;;;;;;32.71;37.89;99635.47;5113459;28;20035;-80
2023/06/01 06:25:52;;;;;;;6.68;4.65;;;;;;;33.36;37.64;99647.94;5113125;28;20046;-78
2023/06/01 06:28:17;;;;;;;7.53;4.70;;;;;;;34.44;36.18;99639.41;5113123;28;20451;-78
2023/06/01 06:30:43;;;;;;;5.78;4.55;;;;;;;35.71;35.40;99641.94;5113455;28;20031;-78
2023/06/01 06:33:08;;;;;;;5.47;4.80;;;;;;;36.65;34.17;99636.34;5113006;28;20024;-78
2023/06/01 06:35:34;;;;;;;5.70;4.30;;;;;;;37.68;33.19;99628.94;5113371;28;20110;-78
2023/06/01 06:37:59;;;;;;;4.85;4.43;;;;;;;38.85;32.43;99654.09;5112689;28;20024;-78
2023/06/01 06:40:24;;;;;;;9.25;4.30;;;;;;;39.59;31.47;99647.94;5112603;28;20019;-79
2023/06/01 06:42:50;;;;;;;4.70;4.25;;;;;;;40.40;30.73;99653.06;5113027;28;20368;-79
2023/06/01 06:45:16;;;;;;;4.47;4.03;;;;;;;41.11;29.77;99653.25;5112816;28;20055;-79
2023/06/01 06:47:45;;;;;;;5.88;4.25;;;;;;;41.52;29.72;99653.28;5112985;28;20077;-78
2023/06/01 06:50:11;;;;;;;4.78;4.28;;;;;;;42.03;29.38;99650.44;5112698;28;20027;-79
2023/06/01 06:52:36;;;;;;;5.05;4.35;;;;;;;42.51;28.41;99639.84;5112947;28;20063;-78
2023/06/01 06:55:02;;;;;;;4.22;3.83;;;;;;;43.09;28.35;99653.75;5112538;28;20490;-78
2023/06/01 06:57:27;;;;;;;4.70;4.30;;;;;;;43.01;27.96;99646.13;5112956;28;20107;-79
2023/06/01 06:59:53;;;;;;;4.47;4.18;;;;;;;42.40;28.00;99642.94;5112685;28;20031;-78
2023/06/01 07:02:19;;;;;;;4.20;3.80;;;;;;;41.79;28.29;99646.66;5112852;28;20080;-78
2023/06/01 07:04:44;;;;;;;4.38;4.03;;;;;;;41.44;28.20;99631.16;5112833;28;20031;-78
2023/06/01 07:07:09;;;;;;;5.50;4.88;;;;;;;41.98;28.06;99628.59;5112517;28;20114;-79
2023/06/01 07:09:35;;;;;;;4.53;4.13;;;;;;;42.49;27.09;99642.06;5112597;28;20469;-79
2023/06/01 07:12:00;;;;;;;6.07;4.10;;;;;;;42.93;26.38;99637.69;5112244;28;20379;-79
2023/06/01 07:14:25;;;;;;;6.50;3.80;;;;;;;43.33;26.21;99631.91;5112566;28;20043;-79
2023/06/01 07:16:51;;;;;;;7.75;4.22;;;;;;;43.57;25.84;99628.41;5112749;28;20068;-79
2023/06/01 07:19:16;;;;;;;5.15;3.50;;;;;;;43.98;26.26;99625.22;5112545;28;20431;-79
2023/06/01 07:21:42;;;;;;;5.13;3.70;;;;;;;44.29;25.32;99629.25;5112545;28;20424;-79
2023/06/01 07:24:08;;;;;;;3.90;3.45;;;;;;;44.47;25.66;99621.34;5112277;28;20026;-78
2023/06/01 07:26:33;;;;;;;4.65;3.60;;;;;;;44.75;25.30;99638.78;5112402;28;20030;-79
2023/06/01 07:28:59;;;;;;;4.75;3.97;;;;;;;45.16;25.12;99622.47;5112571;28;20019;-79
2023/06/01 07:31:27;;;;;;;3.83;3.53;;;;;;;45.30;24.54;99628.00;5112493;28;20024;-79
2023/06/01 07:33:53;;;;;;;5.40;4.28;;;;;;;45.62;24.75;99640.94;5112398;28;20031;-79
2023/06/01 07:36:20;;;;;;;4.13;3.72;;;;;;;45.71;24.75;99632.78;5112246;28;20032;-79
2023/06/01 07:38:45;;;;;;;4.28;3.78;;;;;;;45.89;24.19;99633.81;5112140;28;20027;-79
2023/06/01 07:41:11;;;;;;;3.70;3.40;;;;;;;45.98;24.47;99635.56;5112223;28;20482;-79
2023/06/01 07:43:38;;;;;;;5.13;3.88;;;;;;;45.98;23.94;99632.00;5112452;28;20069;-79
2023/06/01 07:46:03;;;;;;;4.07;3.70;;;;;;;45.54;24.58;99608.63;5112183;28;20051;-79
2023/06/01 07:48:29;;;;;;;3.85;3.55;;;;;;;45.60;24.35;99607.41;5112300;28;20429;-79
2023/06/01 07:50:54;;;;;;;4.85;3.85;;;;;;;45.84;24.68;99626.50;5114992;28;20030;-79
2023/06/01 07:53:20;;;;;;;4.72;3.80;;;;;;;45.70;24.76;99617.41;5116242;28;20485;-79
2023/06/01 07:55:48;;;;;;;4.82;3.65;;;;;;;45.40;24.59;99621.53;5116180;28;20092;-79
2023/06/01 07:58:14;;;;;;;3.58;3.22;;;;;;;45.08;24.71;99614.91;5116254;28;20118;-79
2023/06/01 08:00:39;;;;;;;3.63;3.33;;;;;;;44.93;24.92;99612.41;5116383;28;20102;-78
2023/06/01 08:03:06;;;;;;;3.33;3.13;;;;;;;44.68;25.31;99610.88;5116046;28;20052;-79
2023/06/01 08:05:34;;;;;;;3.58;3.28;;;;;;;44.58;25.57;99615.38;5116142;28;20483;-79
2023/06/01 08:07:59;;;;;;;3.92;3.15;;;;;;;44.25;25.65;99625.47;5079696;28;20479;-78
2023/06/01 08:10:24;;;;;;;3.33;2.83;;;;;;;42.67;26.17;99610.47;5116154;28;20043;-78
2023/06/01 08:12:50;;;;;;;5.70;3.13;;;;;;;40.96;26.69;99603.22;5116578;28;20387;-78
2023/06/01 08:15:15;;;;;;;5.32;3.20;;;;;;;39.32;27.99;99599.00;5115529;28;20035;-78
2023/06/01 08:17:41;;;;;;;3.28;2.97;;;;;;;37.62;29.53;99587.25;5115990;28;20111;-78
2023/06/01 08:20:12;;;;;;;3.72;2.90;;;;;;;36.44;30.54;99580.84;5115710;28;20023;-78
2023/06/01 08:22:38;;;;;;;7.40;3.00;;;;;;;35.43;30.74;99591.94;5115852;28;20032;-78
2023/06/01 08:25:05;;;;;;;4.80;2.70;;;;;;;34.50;31.73;99573.63;5115589;28;20379;-77
2023/06/01 08:27:30;;;;;;;2.78;2.45;;;;;;;33.78;32.14;99585.03;5080104;28;20039;-78
2023/06/01 08:29:56;;;;;;;3.47;2.60;;;;;;;33.37;32.51;99590.19;5115806;28;20485;-77
2023/06/01 08:32:21;;;;;;;3.97;3.10;;;;;;;32.71;32.92;99570.75;5115593;28;20077;-77
2023/06/01 08:34:46;;;;;;;5.57;2.92;;;;;;;32.29;33.25;99559.53;5115730;28;20065;-77
2023/06/01 08:37:15;;;;;;;6.57;2.60;;;;;;;32.01;34.03;99567.94;5115392;28;20080;-77
2023/06/01 08:39:41;;;;;;;3.88;2.85;;;;;;;31.79;34.35;99577.31;5116001;28;20035;-77
2023/06/01 08:42:21;;;;;;;4.75;2.70;;;;;;;31.49;34.53;99582.34;5115424;28;20081;-77
2023/06/01 08:44:47;;;;;;;3.70;2.40;;;;;;;31.17;34.80;99565.97;5106907;28;20528;-77
2023/06/01 08:47:13;;;;;;;7.60;2.85;;;;;;;31.11;35.43;99571.34;5104085;28;20032;-77
2023/06/01 08:49:41;;;;;;;6.93;2.85;;;;;;;30.83;35.46;99540.09;5111579;28;20028;-78
2023/06/01 08:52:18;;;;;;;6.18;3.13;;;;;;;30.75;35.74;99553.72;5115336;28;20031;-78
2023/06/01 08:54:43;;;;;;;3.40;2.45;;;;;;;30.47;35.13;99530.50;5115221;28;20055;-78
2023/06/01 08:57:10;;;;;;;2.42;2.22;;;;;;;30.23;35.46;99520.31;5107452;28;20126;-78
2023/06/01 08:59:36;;;;;;;2.78;2.55;;;;;;;30.27;36.40;99553.78;5103144;28;20024;-78
2023/06/01 09:02:02;;;;;;;7.47;2.78;;;;;;;30.10;36.58;99539.84;5103600;28;20036;-78
2023/06/01 09:04:30;;;;;;;8.23;2.80;;;;;;;29.91;36.68;99532.53;5102941;28;20467;-78
2023/06/01 09:06:56;;;;;;;5.22;2.78;;;;;;;29.94;36.95;99530.28;5104748;28;20034;-78
2023/06/01 09:09:21;;;;;;;6.65;2.70;;;;;;;29.84;37.10;99548.63;5080274;28;20032;-78
2023/06/01 09:11:47;;;;;;;3.75;2.40;;;;;;;29.66;36.90;99550.97;5113969;28;20056;-78
2023/06/01 09:14:23;;;;;;;5.32;2.92;;;;;;;29.46;36.94;99532.06;5111262;28;20048;-78
2023/06/01 09:16:50;;;;;;;2.97;2.17;;;;;;;29.44;37.81;99523.38;5103689;28;20030;-78
2023/06/01 09:19:15;;;;;;;7.72;3.08;;;;;;;29.23;37.60;99513.53;5102358;28;20024;-78
2023/06/01 09:21:56;;;;;;;4.72;2.70;;;;;;;29.38;37.77;99537.56;5105108;28;20086;-78
2023/06/01 09:24:24;;;;;;;3.30;2.33;;;;;;;29.43;37.31;99544.00;5102379;28;20051;-78
2023/06/01 09:26:50;;;;;;;6.10;2.50;;;;;;;29.28;37.69;99519.13;5102549;28;20119;-78
2023/06/01 09:29:16;;;;;;;4.22;2.70;;;;;;;29.21;37.34;99515.59;5101124;28;20032;-78
2023/06/01 09:31:46;;;;;;;3.17;2.28;;;;;;;29.25;37.63;99541.00;5101935;28;20493;-78
2023/06/01 09:34:15;;;;;;;5.75;2.72;;;;;;;29.09;37.67;99524.16;5111082;28;20031;-78
2023/06/01 09:36:41;;;;;;;2.88;2.50;;;;;;;28.92;37.81;99506.66;5114621;28;20036;-78
2023/06/01 09:39:09;;;;;;;5.57;2.95;;;;;;;29.04;37.72;99528.44;5114296;28;20424;-78
2023/06/01 09:41:45;;;;;;;4.55;2.85;;;;;;;28.84;38.46;99504.13;5114383;28;20027;-78
2023/06/01 09:44:12;;;;;;;2.90;2.60;;;;;;;28.75;38.18;99499.91;5114355;28;20403;-78
2023/06/01 09:46:48;;;;;;;3.47;2.83;;;;;;;28.91;38.87;99534.50;5114402;28;20474;-78
2023/06/01 09:49:28;;;;;;;4.43;2.63;;;;;;;28.74;38.15;99509.00;5077895;28;20461;-78
2023/06/01 09:52:06;;;;;;;4.05;2.40;;;;;;;28.81;39.05;99525.94;5114283;28;20111;-78
2023/06/01 09:54:39;;;;;;;6.22;2.85;;;;;;;28.67;38.63;99490.16;5114087;28;20028;-78
2023/06/01 09:57:05;;;;;;;4.10;2.45;;;;;;;28.64;37.74;99511.13;5113790;28;20489;-78
2023/06/01 09:59:45;;;;;;;2.60;2.20;;;;;;;28.60;37.99;99500.78;5114046;28;20114;-78
2023/06/01 10:02:15;;;;;;;4.47;2.72;;;;;;;28.59;38.08;99492.97;5113854;28;20020;-78
2023/06/01 10:04:45;;;;;;;2.60;2.40;;;;;;;28.65;38.94;99492.19;5113848;28;20032;-78
2023/06/01 10:07:13;;;;;;;3.88;2.95;;;;;;;28.64;38.88;99501.25;5113811;28;20085;-78
2023/06/01 10:09:41;;;;;;;3.10;2.53;;;;;;;28.45;38.08;99475.09;5113892;28;20118;-78
2023/06/01 10:12:07;;;;;;;3.30;2.53;;;;;;;28.56;37.37;99494.16;5113608;28;20026;-78
2023/06/01 10:14:33;;;;;;;3.50;2.17;;;;;;;28.54;37.70;99506.09;5112966;28;20448;-78
2023/06/01 10:16:59;;;;;;;3.75;3.13;;;;;;;28.59;38.32;99496.47;5113705;28;20106;-78
2023/06/01 10:19:25;;;;;;;5.38;2.40;;;;;;;28.45;37.33;99505.41;5113237;28;20032;-78
2023/06/01 10:21:53;;;;;;;5.35;2.85;;;;;;;28.41;37.72;99504.13;5113783;28;20100;-78
2023/06/01 10:24:19;;;;;;;5.20;2.72;;;;;;;28.40;38.30;99496.25;5113474;28;20047;-78
2023/06/01 10:27:06;;;;;;;5.90;3.00;;;;;;;28.41;38.33;99506.81;5113563;28;20060;-78
2023/06/01 10:29:32;;;;;;;3.40;2.70;;;;;;;28.32;37.95;99484.63;5113328;28;20031;-78
2023/06/01 10:31:58;;;;;;;4.85;2.95;;;;;;;28.28;38.60;99469.97;5113153;28;20476;-78
2023/06/01 10:34:44;;;;;;;3.97;2.70;;;;;;;28.42;39.51;99497.75;5069302;28;20378;-77
2023/06/01 10:37:14;;;;;;;3.10;2.83;;;;;;;28.43;40.26;99490.53;5069163;28;20198;-76
2023/06/01 10:39:39;;;;;;;5.13;2.78;;;;;;;28.48;39.86;99488.94;5069312;28;20024;-77
2023/06/01 10:42:12;;;;;;;3.50;2.85;;;;;;;28.48;39.47;99485.41;5069539;28;20316;-77
2023/06/01 10:44:44;;;;;;;5.00;3.08;;;;;;;28.41;39.62;99493.41;5069386;28;20028;-76
2023/06/01 10:47:12;;;;;;;4.88;3.35;;;;;;;28.42;40.32;99481.66;5068957;28;20036;-77
2023/06/01 10:49:46;;;;;;;6.30;3.22;;;;;;;28.38;40.48;99482.25;5069287;28;20031;-77
2023/06/01 10:52:35;;;;;;;3.85;3.30;;;;;;;28.43;40.42;99480.63;5068806;28;20432;-77
2023/06/01 10:55:10;;;;;;;4.00;2.95;;;;;;;28.48;39.71;99472.03;5068794;28;20099;-77
2023/06/01 10:57:45;;;;;;;4.13;3.00;;;;;;;28.36;40.38;99452.97;5069129;28;20032;-77
2023/06/01 11:00:26;;;;;;;4.88;3.03;;;;;;;28.36;39.89;99466.38;5068797;28;20048;-77
2023/06/01 11:03:05;;;;;;;3.05;2.85;;;;;;;28.47;40.82;99471.19;5069309;28;20028;-77
2023/06/01 11:05:52;;;;;;;4.15;2.95;;;;;;;28.47;40.24;99460.47;5069108;28;20021;-77
2023/06/01 11:08:24;;;;;;;5.80;2.95;;;;;;;28.51;39.89;99461.75;5068765;28;20029;-78
2023/06/01 11:10:52;;;;;;;4.35;3.10;;;;;;;28.53;40.33;99458.91;5068705;28;20028;-79
2023/06/01 11:13:37;;;;;;;3.60;3.30;;;;;;;28.47;39.48;99449.78;5068265;28;20035;-79
2023/06/01 11:16:20;;;;;;;6.47;3.97;;;;;;;28.50;38.67;99459.28;5068627;28;20063;-79
2023/06/01 11:18:58;;;;;;;5.07;3.80;;;;;;;28.46;38.81;99458.00;5068543;28;20032;-79
2023/06/01 11:21:25;;;;;;;5.57;3.10;;;;;;;28.43;38.85;99447.66;5068093;28;20032;-79
2023/06/01 11:23:52;;;;;;;5.63;3.53;;;;;;;28.30;38.19;99426.91;5068207;28;20082;-79
2023/06/01 11:26:20;;;;;;;4.85;3.60;;;;;;;28.28;37.70;99435.16;5068458;28;20032;-79
2023/06/01 11:28:47;;;;;;;4.82;3.85;;;;;;;28.35;37.75;99448.59;5068466;28;20072;-79
2023/06/01 11:31:17;;;;;;;4.18;3.72;;;;;;;28.28;37.11;99426.28;5067903;28;20020;-79
2023/06/01 11:33:57;;;;;;;4.60;4.00;;;;;;;28.28;37.70;99427.13;5067830;28;20054;-79